Terminal Aerodrome Forecast
Issued by NWS Amarillo, TX

Home | Current Version | Previous Version | Text Only | Print | Product List | Glossary On
Versions: 1 2 3 4 5 6 7 8 9 10 11 12 13
000
FTUS44 KAMA 271720
TAFGUY
TAF
KGUY 271720Z 2718/2818 35005KT P6SM FEW020 BKN110
     FM280300 02006KT P6SM BKN070
     FM280600 02005KT P6SM SCT020 OVC070 PROB30 2806/2809 TS
      OVC050CB
     FM281200 VRB04KT P6SM SCT020 BKN050=

USA.gov is the U.S. government's official web portal to all federal, state and local government web resources and services.